createdAt,value
2022-12-13T00:00:23.437Z,100529.23
2022-12-13T00:00:55.576Z,100529.47
2022-12-13T00:01:27.873Z,100529.30
2022-12-13T00:02:00.129Z,100530.50
2022-12-13T00:02:32.262Z,100531.81
2022-12-13T00:03:04.411Z,100533.92
2022-12-13T00:03:36.639Z,100533.55
2022-12-13T00:04:08.796Z,100533.51
2022-12-13T00:04:40.957Z,100532.86
2022-12-13T00:05:13.501Z,100532.70
2022-12-13T00:05:45.328Z,100533.66
2022-12-13T00:06:17.597Z,100532.95
2022-12-13T00:06:49.916Z,100531.98
2022-12-13T00:07:22.139Z,100531.88
2022-12-13T00:07:54.379Z,100531.50
2022-12-13T00:08:26.621Z,100530.95
2022-12-13T00:08:58.778Z,100529.36
2022-12-13T00:09:30.938Z,100529.20
2022-12-13T00:10:03.252Z,100528.88
2022-12-13T00:10:35.496Z,100527.95
2022-12-13T00:11:07.619Z,100527.20
2022-12-13T00:11:40.409Z,100527.14
2022-12-13T00:12:12.564Z,100526.54
2022-12-13T00:12:44.695Z,100526.48
2022-12-13T00:13:16.854Z,100527.51
2022-12-13T00:13:48.996Z,100527.74
2022-12-13T00:14:21.231Z,100526.60
2022-12-13T00:14:53.409Z,100527.69
2022-12-13T00:15:25.614Z,100525.51
2022-12-13T00:15:57.909Z,100525.83
2022-12-13T00:16:30.142Z,100525.06
2022-12-13T00:17:02.352Z,100526.66
2022-12-13T00:17:34.488Z,100526.55
2022-12-13T00:18:06.684Z,100523.27
2022-12-13T00:18:39.031Z,100524.33
2022-12-13T00:19:11.166Z,100523.70
2022-12-13T00:19:43.308Z,100522.63
2022-12-13T00:20:15.539Z,100521.98
2022-12-13T00:20:47.821Z,100521.22
2022-12-13T00:21:20.011Z,100519.73
2022-12-13T00:21:52.443Z,100520.47
2022-12-13T00:22:24.911Z,100520.55
2022-12-13T00:22:57.139Z,100517.89
2022-12-13T00:23:29.372Z,100518.00
2022-12-13T00:24:01.619Z,100518.00
2022-12-13T00:24:33.785Z,100517.28
2022-12-13T00:25:05.992Z,100518.55
2022-12-13T00:25:38.184Z,100516.75
2022-12-13T00:26:10.956Z,100515.94
2022-12-13T00:26:43.154Z,100517.08
2022-12-13T00:27:15.342Z,100514.26
2022-12-13T00:27:47.512Z,100515.02
2022-12-13T00:28:19.690Z,100516.06
2022-12-13T00:28:51.944Z,100514.05
2022-12-13T00:29:24.161Z,100512.91
2022-12-13T00:29:56.354Z,100512.17
2022-12-13T00:30:28.673Z,100511.85
2022-12-13T00:31:19.723Z,100512.50
2022-12-13T00:32:05.533Z,100511.58
2022-12-13T00:32:37.564Z,100511.44
2022-12-13T00:33:09.741Z,100511.52
2022-12-13T00:33:41.914Z,100510.77
2022-12-13T00:34:14.117Z,100510.48
2022-12-13T00:34:47.127Z,100511.05
2022-12-13T00:35:19.310Z,100511.65
2022-12-13T00:35:51.433Z,100511.48
2022-12-13T00:36:23.634Z,100512.95
2022-12-13T00:36:55.828Z,100512.20
2022-12-13T00:37:27.979Z,100512.84
2022-12-13T00:38:00.113Z,100511.81
2022-12-13T00:38:32.333Z,100512.73
2022-12-13T00:39:04.562Z,100512.69
2022-12-13T00:39:36.759Z,100511.42
2022-12-13T00:40:08.976Z,100510.18
2022-12-13T00:40:41.190Z,100509.47
2022-12-13T00:41:13.336Z,100508.39
2022-12-13T00:41:45.478Z,100510.72
2022-12-13T00:42:17.762Z,100508.50
2022-12-13T00:42:49.956Z,100505.97
2022-12-13T00:43:22.172Z,100507.56
2022-12-13T00:43:54.435Z,100505.59
2022-12-13T00:44:26.654Z,100506.09
2022-12-13T00:44:58.786Z,100504.69
2022-12-13T00:45:30.949Z,100504.08
2022-12-13T00:46:03.145Z,100503.88
2022-12-13T00:46:35.274Z,100504.24
2022-12-13T00:47:07.410Z,100504.78
2022-12-13T00:47:39.623Z,100504.41
2022-12-13T00:48:11.993Z,100503.98
2022-12-13T00:48:44.192Z,100502.11
2022-12-13T00:49:16.495Z,100502.39
2022-12-13T00:49:48.746Z,100500.97
2022-12-13T00:50:20.958Z,100500.77
2022-12-13T00:50:53.166Z,100501.08
2022-12-13T00:51:25.364Z,100500.44
2022-12-13T00:51:57.545Z,100500.97
2022-12-13T00:52:29.699Z,100501.08
2022-12-13T00:53:01.860Z,100501.08
2022-12-13T00:53:34.132Z,100501.03
2022-12-13T00:54:06.367Z,100500.11
2022-12-13T00:54:38.571Z,100497.98
2022-12-13T00:55:10.741Z,100495.95
2022-12-13T00:55:42.927Z,100495.63
2022-12-13T00:56:15.058Z,100494.77
2022-12-13T00:56:47.207Z,100495.05
2022-12-13T00:57:19.382Z,100497.77
2022-12-13T00:57:51.591Z,100497.32
2022-12-13T00:58:23.790Z,100497.11
2022-12-13T00:58:55.970Z,100496.83
2022-12-13T00:59:28.181Z,100495.97
2022-12-13T01:00:00.363Z,100494.92
2022-12-13T01:00:32.547Z,100495.08
2022-12-13T01:01:04.761Z,100493.63
2022-12-13T01:01:36.973Z,100494.75
2022-12-13T01:02:08.988Z,100494.06
2022-12-13T01:02:41.265Z,100494.67
2022-12-13T01:03:13.496Z,100495.69
2022-12-13T01:03:45.661Z,100495.80
2022-12-13T01:04:17.834Z,100494.66
2022-12-13T01:04:49.962Z,100493.61
2022-12-13T01:05:46.090Z,100494.66
2022-12-13T01:06:26.470Z,100494.39
2022-12-13T01:06:58.762Z,100494.55
2022-12-13T01:07:30.887Z,100493.80
2022-12-13T01:08:03.079Z,100492.73
2022-12-13T01:08:35.150Z,100492.80
2022-12-13T01:09:07.277Z,100492.76
2022-12-13T01:09:39.428Z,100493.45
2022-12-13T01:10:11.640Z,100493.63
2022-12-13T01:10:43.827Z,100492.80
2022-12-13T01:11:16.005Z,100492.74
2022-12-13T01:11:48.198Z,100493.80
2022-12-13T01:12:20.630Z,100492.11
2022-12-13T01:12:52.756Z,100490.80
2022-12-13T01:13:24.934Z,100490.41
2022-12-13T01:13:57.074Z,100491.13
2022-12-13T01:14:29.297Z,100490.41
2022-12-13T01:15:01.492Z,100490.34
2022-12-13T01:15:33.701Z,100488.61
2022-12-13T01:16:05.908Z,100486.99
2022-12-13T01:16:38.160Z,100486.88
2022-12-13T01:17:10.282Z,100487.48
2022-12-13T01:17:42.424Z,100486.12
2022-12-13T01:18:14.535Z,100487.53
2022-12-13T01:18:46.689Z,100487.41
2022-12-13T01:19:18.819Z,100488.66
2022-12-13T01:19:51.006Z,100489.31
2022-12-13T01:20:23.136Z,100488.92
2022-12-13T01:20:55.269Z,100489.35
2022-12-13T01:21:27.457Z,100490.95
2022-12-13T01:21:59.938Z,100490.54
2022-12-13T01:22:31.899Z,100490.80
2022-12-13T01:23:04.107Z,100490.61
2022-12-13T01:23:36.248Z,100491.00
2022-12-13T01:24:08.391Z,100492.08
2022-12-13T01:24:40.547Z,100494.11
2022-12-13T01:25:13.058Z,100494.17
2022-12-13T01:25:44.916Z,100493.56
2022-12-13T01:26:17.118Z,100493.23
2022-12-13T01:26:49.290Z,100495.52
2022-12-13T01:27:21.427Z,100495.59
2022-12-13T01:27:53.580Z,100496.68
2022-12-13T01:28:25.736Z,100498.36
2022-12-13T01:28:58.449Z,100498.19
2022-12-13T01:29:30.722Z,100499.00
2022-12-13T01:30:02.882Z,100498.72
2022-12-13T01:30:35.132Z,100497.64
2022-12-13T01:31:07.297Z,100499.11
2022-12-13T01:31:39.436Z,100498.35
2022-12-13T01:32:11.570Z,100498.60
2022-12-13T01:32:43.772Z,100498.72
2022-12-13T01:33:15.897Z,100498.77
2022-12-13T01:33:48.072Z,100499.80
2022-12-13T01:34:20.235Z,100500.25
2022-12-13T01:34:52.492Z,100499.53
2022-12-13T01:35:24.745Z,100501.33
2022-12-13T01:35:56.875Z,100502.25
2022-12-13T01:36:29.060Z,100502.89
2022-12-13T01:37:01.228Z,100501.84
2022-12-13T01:37:37.440Z,100502.61
2022-12-13T01:38:15.409Z,100501.58
2022-12-13T01:38:38.383Z,100500.65
2022-12-13T01:39:14.915Z,100501.94
2022-12-13T01:39:42.119Z,100499.00
2022-12-13T01:40:16.191Z,100497.35
2022-12-13T01:40:46.486Z,100496.10
2022-12-13T01:41:18.694Z,100493.88
2022-12-13T01:41:50.948Z,100493.43
2022-12-13T01:42:23.128Z,100492.48
2022-12-13T01:42:55.341Z,100493.70
2022-12-13T01:43:27.538Z,100492.66
2022-12-13T01:43:59.688Z,100492.81
2022-12-13T01:44:31.812Z,100491.34
2022-12-13T01:45:04.025Z,100489.32
2022-12-13T01:45:36.163Z,100489.09
2022-12-13T01:46:08.315Z,100488.88
2022-12-13T01:46:40.481Z,100489.31
2022-12-13T01:47:12.708Z,100489.45
2022-12-13T01:47:44.842Z,100487.98
2022-12-13T01:48:16.950Z,100489.08
2022-12-13T01:48:49.092Z,100487.20
2022-12-13T01:49:21.203Z,100487.97
2022-12-13T01:49:53.386Z,100486.89
2022-12-13T01:50:25.640Z,100486.16
2022-12-13T01:50:57.876Z,100484.92
2022-12-13T01:51:30.000Z,100486.23
2022-12-13T01:52:02.189Z,100485.64
2022-12-13T01:52:34.426Z,100484.61
2022-12-13T01:53:06.609Z,100483.22
2022-12-13T01:53:38.864Z,100483.56
2022-12-13T01:54:10.995Z,100482.51
2022-12-13T01:54:46.479Z,100483.22
2022-12-13T01:55:15.440Z,100485.51
2022-12-13T01:55:47.450Z,100485.88
2022-12-13T01:56:19.575Z,100487.72
2022-12-13T01:56:51.764Z,100487.08
2022-12-13T01:57:23.968Z,100486.09
2022-12-13T01:57:56.172Z,100488.33
2022-12-13T01:58:28.285Z,100489.14
2022-12-13T01:59:00.433Z,100488.45
2022-12-13T01:59:32.595Z,100491.00
2022-12-13T02:00:04.786Z,100491.70
2022-12-13T02:00:37.049Z,100490.30
2022-12-13T02:01:09.247Z,100491.45
2022-12-13T02:01:41.513Z,100491.70
2022-12-13T02:02:13.829Z,100490.68
2022-12-13T02:02:46.019Z,100491.39
2022-12-13T02:03:21.779Z,100491.55
2022-12-13T02:03:50.475Z,100491.21
2022-12-13T02:04:22.834Z,100490.08
2022-12-13T02:04:55.030Z,100488.88
2022-12-13T02:05:27.161Z,100487.41
2022-12-13T02:06:00.436Z,100489.79
2022-12-13T02:06:31.483Z,100488.28
2022-12-13T02:07:03.679Z,100487.78
2022-12-13T02:07:35.950Z,100488.22
2022-12-13T02:08:08.173Z,100489.23
2022-12-13T02:08:40.346Z,100488.97
2022-12-13T02:09:12.529Z,100489.17
2022-12-13T02:09:44.770Z,100488.38
2022-12-13T02:10:16.957Z,100489.01
2022-12-13T02:10:49.083Z,100489.16
2022-12-13T02:11:21.188Z,100489.05
2022-12-13T02:11:53.393Z,100490.24
2022-12-13T02:12:25.562Z,100488.41
2022-12-13T02:12:57.714Z,100487.86
2022-12-13T02:13:29.836Z,100488.08
2022-12-13T02:14:02.028Z,100488.33
2022-12-13T02:14:34.219Z,100488.23
2022-12-13T02:15:06.424Z,100487.69
2022-12-13T02:15:38.622Z,100488.40
2022-12-13T02:16:10.740Z,100489.25
2022-12-13T02:16:42.946Z,100489.64
2022-12-13T02:17:15.139Z,100490.39
2022-12-13T02:17:47.279Z,100491.41
2022-12-13T02:18:19.406Z,100491.20
2022-12-13T02:18:51.584Z,100490.92
2022-12-13T02:19:23.780Z,100493.21
2022-12-13T02:19:55.980Z,100493.03
2022-12-13T02:20:28.328Z,100493.88
2022-12-13T02:21:00.501Z,100493.84
2022-12-13T02:21:32.733Z,100493.45
2022-12-13T02:22:04.892Z,100495.05
2022-12-13T02:22:37.078Z,100495.52
2022-12-13T02:23:09.303Z,100494.61
2022-12-13T02:23:41.524Z,100495.70
2022-12-13T02:24:13.727Z,100495.38
2022-12-13T02:24:45.898Z,100495.33
2022-12-13T02:25:18.029Z,100496.74
2022-12-13T02:25:50.147Z,100494.30
2022-12-13T02:26:22.297Z,100494.47
2022-12-13T02:26:54.499Z,100494.25
2022-12-13T02:27:30.643Z,100493.45
2022-12-13T02:28:00.821Z,100494.16
2022-12-13T02:28:32.336Z,100495.41
2022-12-13T02:29:03.187Z,100494.98
2022-12-13T02:29:35.340Z,100495.09
2022-12-13T02:30:07.486Z,100495.43
2022-12-13T02:30:39.664Z,100496.31
2022-12-13T02:31:11.903Z,100497.41
2022-12-13T02:31:44.072Z,100496.70
2022-12-13T02:32:16.198Z,100497.19
2022-12-13T02:32:48.344Z,100497.56
2022-12-13T02:33:21.481Z,100497.02
2022-12-13T02:33:52.640Z,100497.13
2022-12-13T02:34:24.797Z,100499.85
2022-12-13T02:34:56.967Z,100499.13
2022-12-13T02:35:29.142Z,100499.45
2022-12-13T02:36:01.292Z,100497.88
2022-12-13T02:36:36.373Z,100497.73
2022-12-13T02:37:05.652Z,100498.50
2022-12-13T02:37:37.862Z,100498.38
2022-12-13T02:38:10.097Z,100498.36
2022-12-13T02:38:42.277Z,100499.22
2022-12-13T02:39:14.522Z,100500.95
2022-12-13T02:39:46.711Z,100500.16
2022-12-13T02:40:18.807Z,100497.86
2022-12-13T02:40:50.990Z,100497.98
2022-12-13T02:41:23.172Z,100497.97
2022-12-13T02:41:55.390Z,100497.08
2022-12-13T02:42:27.603Z,100497.03
2022-12-13T02:42:59.741Z,100496.16
2022-12-13T02:43:33.757Z,100495.47
2022-12-13T02:44:04.047Z,100495.84
2022-12-13T02:44:36.176Z,100494.55
2022-12-13T02:45:08.319Z,100493.36
2022-12-13T02:45:40.520Z,100495.00
2022-12-13T02:46:12.726Z,100493.48
2022-12-13T02:46:44.821Z,100493.20
2022-12-13T02:47:22.191Z,100493.80
2022-12-13T02:47:49.120Z,100494.13
2022-12-13T02:48:21.290Z,100492.56
2022-12-13T02:48:53.515Z,100493.11
2022-12-13T02:49:25.687Z,100494.79
2022-12-13T02:49:57.848Z,100493.87
2022-12-13T02:50:29.988Z,100495.31
2022-12-13T02:51:02.206Z,100494.62
2022-12-13T02:51:34.475Z,100494.60
2022-12-13T02:52:06.645Z,100493.97
2022-12-13T02:52:38.907Z,100494.67
2022-12-13T02:53:11.115Z,100493.48
2022-12-13T02:53:43.316Z,100495.38
2022-12-13T02:54:15.528Z,100495.97
2022-12-13T02:54:47.733Z,100495.80
2022-12-13T02:55:21.154Z,100497.27
2022-12-13T02:55:52.205Z,100496.31
2022-12-13T02:56:24.372Z,100497.11
2022-12-13T02:56:56.502Z,100497.77
2022-12-13T02:57:28.634Z,100496.36
2022-12-13T02:58:00.840Z,100494.83
2022-12-13T02:58:33.166Z,100494.41
2022-12-13T02:59:05.389Z,100493.66
2022-12-13T02:59:37.607Z,100494.66
2022-12-13T03:00:09.799Z,100492.63
2022-12-13T03:00:42.070Z,100492.16
2022-12-13T03:01:28.403Z,100489.97
2022-12-13T03:01:46.688Z,100490.36
2022-12-13T03:02:21.633Z,100489.53
2022-12-13T03:02:51.049Z,100489.92
2022-12-13T03:03:23.162Z,100489.53
2022-12-13T03:03:55.242Z,100489.05
2022-12-13T03:04:27.396Z,100489.12
2022-12-13T03:04:59.534Z,100489.65
2022-12-13T03:05:31.677Z,100490.69
2022-12-13T03:06:03.876Z,100490.90
2022-12-13T03:06:36.060Z,100491.13
2022-12-13T03:07:08.260Z,100492.28
2022-12-13T03:07:40.460Z,100492.42
2022-12-13T03:08:12.705Z,100493.20
2022-12-13T03:08:44.855Z,100495.05
2022-12-13T03:09:17.037Z,100497.05
2022-12-13T03:09:49.208Z,100496.13
2022-12-13T03:10:21.331Z,100497.72
2022-12-13T03:10:53.622Z,100496.23
2022-12-13T03:11:25.758Z,100497.55
2022-12-13T03:11:57.952Z,100498.44
2022-12-13T03:12:30.146Z,100497.72
2022-12-13T03:13:02.379Z,100497.88
2022-12-13T03:13:34.553Z,100499.19
2022-12-13T03:14:06.935Z,100498.38
2022-12-13T03:14:39.403Z,100497.55
2022-12-13T03:15:11.853Z,100496.79
2022-12-13T03:15:43.913Z,100496.63
2022-12-13T03:16:16.055Z,100495.91
2022-12-13T03:16:48.211Z,100496.63
2022-12-13T03:17:20.465Z,100494.87
2022-12-13T03:17:52.640Z,100494.44
2022-12-13T03:18:24.873Z,100494.38
2022-12-13T03:18:57.068Z,100494.05
2022-12-13T03:19:29.254Z,100493.58
2022-12-13T03:20:01.412Z,100493.03
2022-12-13T03:20:33.557Z,100493.40
2022-12-13T03:21:05.779Z,100493.58
2022-12-13T03:21:41.199Z,100495.25
2022-12-13T03:22:10.108Z,100495.13
2022-12-13T03:22:42.285Z,100493.67
2022-12-13T03:23:14.526Z,100494.41
2022-12-13T03:23:46.695Z,100492.68
2022-12-13T03:24:18.969Z,100492.67
2022-12-13T03:24:51.128Z,100492.41
2022-12-13T03:25:30.995Z,100491.53
2022-12-13T03:25:55.474Z,100492.45
2022-12-13T03:26:27.726Z,100490.48
2022-12-13T03:26:59.847Z,100490.63
2022-12-13T03:27:31.973Z,100490.42
2022-12-13T03:28:04.179Z,100490.45
2022-12-13T03:28:36.460Z,100492.44
2022-12-13T03:29:08.633Z,100493.23
2022-12-13T03:29:40.811Z,100492.67
2022-12-13T03:30:12.980Z,100491.64
2022-12-13T03:30:45.187Z,100492.72
2022-12-13T03:31:17.436Z,100492.94
2022-12-13T03:31:49.569Z,100492.05
2022-12-13T03:32:21.743Z,100492.70
2022-12-13T03:32:53.909Z,100491.33
2022-12-13T03:33:26.039Z,100491.34
2022-12-13T03:33:58.294Z,100490.36
2022-12-13T03:34:44.233Z,100491.48
2022-12-13T03:35:02.624Z,100492.39
2022-12-13T03:35:45.274Z,100491.73
2022-12-13T03:36:07.014Z,100491.04
2022-12-13T03:36:39.140Z,100491.42
2022-12-13T03:37:11.315Z,100490.86
2022-12-13T03:37:43.509Z,100489.32
2022-12-13T03:38:21.353Z,100489.16
2022-12-13T03:38:47.890Z,100489.05
2022-12-13T03:39:20.111Z,100489.05
2022-12-13T03:39:52.254Z,100486.59
2022-12-13T03:40:24.406Z,100488.37
2022-12-13T03:40:56.531Z,100488.75
2022-12-13T03:41:28.652Z,100487.23
2022-12-13T03:42:00.843Z,100488.05
2022-12-13T03:42:33.182Z,100489.02
2022-12-13T03:43:05.318Z,100489.17
2022-12-13T03:43:37.459Z,100488.45
2022-12-13T03:44:09.638Z,100490.56
2022-12-13T03:44:41.799Z,100489.69
2022-12-13T03:45:14.250Z,100490.32
2022-12-13T03:45:46.161Z,100491.03
2022-12-13T03:46:18.398Z,100490.66
2022-12-13T03:46:50.579Z,100491.98
2022-12-13T03:47:22.733Z,100491.13
2022-12-13T03:47:54.943Z,100492.79
2022-12-13T03:48:27.117Z,100492.05
2022-12-13T03:48:59.273Z,100492.64
2022-12-13T03:49:35.796Z,100492.05
2022-12-13T03:50:07.680Z,100491.72
2022-12-13T03:50:35.794Z,100490.46
2022-12-13T03:51:08.096Z,100489.38
2022-12-13T03:51:40.332Z,100491.31
2022-12-13T03:52:12.512Z,100492.31
2022-12-13T03:52:44.813Z,100491.70
2022-12-13T03:53:23.172Z,100491.89
2022-12-13T03:53:49.190Z,100491.45
2022-12-13T03:54:21.368Z,100491.97
2022-12-13T03:54:53.567Z,100491.31
2022-12-13T03:55:25.780Z,100490.63
2022-12-13T03:55:57.934Z,100490.63
2022-12-13T03:56:30.064Z,100489.76
2022-12-13T03:57:02.195Z,100490.48
2022-12-13T03:57:34.355Z,100489.50
2022-12-13T03:58:07.996Z,100489.13
2022-12-13T03:58:38.664Z,100489.17
2022-12-13T03:59:10.916Z,100488.64
2022-12-13T03:59:43.194Z,100486.41
2022-12-13T04:00:15.327Z,100488.06
2022-12-13T04:00:47.446Z,100487.37
2022-12-13T04:01:19.702Z,100484.43
2022-12-13T04:01:51.921Z,100485.67
2022-12-13T04:02:31.063Z,100485.09
2022-12-13T04:02:56.229Z,100484.22
2022-12-13T04:03:28.456Z,100483.55
2022-12-13T04:04:00.525Z,100481.94
2022-12-13T04:04:32.682Z,100482.80
2022-12-13T04:05:04.915Z,100481.41
2022-12-13T04:05:37.101Z,100479.99
2022-12-13T04:06:09.329Z,100479.79
2022-12-13T04:06:41.560Z,100478.47
2022-12-13T04:07:22.411Z,100478.71
2022-12-13T04:07:48.272Z,100477.66
2022-12-13T04:08:22.218Z,100477.78
2022-12-13T04:08:51.050Z,100476.86
2022-12-13T04:09:22.475Z,100476.77
2022-12-13T04:09:54.694Z,100475.63
2022-12-13T04:10:26.975Z,100475.78
2022-12-13T04:10:59.124Z,100475.40
2022-12-13T04:11:31.306Z,100475.95
2022-12-13T04:12:03.479Z,100473.13
2022-12-13T04:12:35.659Z,100472.69
2022-12-13T04:13:07.843Z,100471.55
2022-12-13T04:13:40.087Z,100470.67
2022-12-13T04:14:12.323Z,100470.78
2022-12-13T04:14:44.458Z,100471.05
2022-12-13T04:15:16.815Z,100471.42
2022-12-13T04:15:48.790Z,100470.59
2022-12-13T04:16:20.957Z,100471.84
2022-12-13T04:16:53.068Z,100471.74
2022-12-13T04:17:25.218Z,100470.31
2022-12-13T04:17:57.430Z,100469.95
2022-12-13T04:18:29.595Z,100470.11
2022-12-13T04:19:01.770Z,100468.64
2022-12-13T04:19:33.948Z,100466.90
2022-12-13T04:20:06.141Z,100466.80
2022-12-13T04:20:38.317Z,100465.94
2022-12-13T04:21:10.471Z,100466.41
2022-12-13T04:21:42.603Z,100465.27
2022-12-13T04:22:16.995Z,100464.58
2022-12-13T04:22:47.084Z,100464.13
2022-12-13T04:23:19.226Z,100465.52
2022-12-13T04:23:51.380Z,100465.30
2022-12-13T04:24:31.260Z,100465.52
2022-12-13T04:24:55.708Z,100465.84
2022-12-13T04:25:27.897Z,100464.20
2022-12-13T04:26:00.042Z,100464.89
2022-12-13T04:26:32.169Z,100465.59
2022-12-13T04:27:04.307Z,100466.23
2022-12-13T04:27:36.437Z,100466.10
2022-12-13T04:28:08.633Z,100467.72
2022-12-13T04:28:40.784Z,100466.98
2022-12-13T04:29:13.005Z,100467.64
2022-12-13T04:29:45.295Z,100466.48
2022-12-13T04:30:17.491Z,100467.09
2022-12-13T04:30:53.430Z,100467.31
2022-12-13T04:31:21.994Z,100466.91
2022-12-13T04:31:54.094Z,100467.20
2022-12-13T04:32:27.444Z,100464.33
2022-12-13T04:32:58.500Z,100465.19
2022-12-13T04:33:30.661Z,100464.01
2022-12-13T04:34:02.865Z,100464.39
2022-12-13T04:34:37.596Z,100464.34
2022-12-13T04:35:07.211Z,100464.38
2022-12-13T04:35:39.424Z,100463.89
2022-12-13T04:36:11.625Z,100464.08
2022-12-13T04:36:43.800Z,100463.36
2022-12-13T04:37:15.925Z,100464.38
2022-12-13T04:37:48.097Z,100463.25
2022-12-13T04:38:20.284Z,100464.44
2022-12-13T04:38:52.479Z,100465.03
2022-12-13T04:39:24.611Z,100465.13
2022-12-13T04:40:00.688Z,100467.30
2022-12-13T04:40:28.868Z,100466.64
2022-12-13T04:41:01.020Z,100469.07
2022-12-13T04:41:34.494Z,100468.58
2022-12-13T04:42:05.415Z,100470.27
2022-12-13T04:42:37.600Z,100470.13
2022-12-13T04:43:09.740Z,100469.91
2022-12-13T04:43:41.902Z,100470.84
2022-12-13T04:44:29.032Z,100472.73
2022-12-13T04:44:46.421Z,100472.22
2022-12-13T04:45:18.413Z,100470.92
2022-12-13T04:45:50.588Z,100470.85
2022-12-13T04:46:22.803Z,100470.86
2022-12-13T04:46:55.024Z,100470.24
2022-12-13T04:47:27.225Z,100469.31
2022-12-13T04:47:59.388Z,100467.77
2022-12-13T04:48:31.812Z,100467.70
2022-12-13T04:49:03.663Z,100467.48
2022-12-13T04:49:35.822Z,100466.76
2022-12-13T04:50:07.948Z,100467.02
2022-12-13T04:50:40.087Z,100466.08
2022-12-13T04:51:12.292Z,100463.15
2022-12-13T04:51:44.464Z,100461.68
2022-12-13T04:52:22.348Z,100462.90
2022-12-13T04:52:48.796Z,100461.28
2022-12-13T04:53:20.979Z,100462.81
2022-12-13T04:53:53.166Z,100462.05
2022-12-13T04:54:25.352Z,100463.30
2022-12-13T04:54:57.551Z,100464.38
2022-12-13T04:55:29.742Z,100463.95
2022-12-13T04:56:01.925Z,100464.00
2022-12-13T04:56:34.113Z,100462.91
2022-12-13T04:57:06.378Z,100463.64
2022-12-13T04:57:38.595Z,100463.86
2022-12-13T04:58:10.725Z,100465.11
2022-12-13T04:58:42.863Z,100465.42
2022-12-13T04:59:15.082Z,100465.11
2022-12-13T04:59:47.264Z,100465.20
2022-12-13T05:00:19.390Z,100464.61
2022-12-13T05:00:51.555Z,100466.09
2022-12-13T05:01:23.749Z,100464.73
2022-12-13T05:01:55.911Z,100464.31
2022-12-13T05:02:27.963Z,100464.33
2022-12-13T05:03:00.091Z,100465.08
2022-12-13T05:03:32.230Z,100463.95
2022-12-13T05:04:04.425Z,100463.33
2022-12-13T05:04:36.623Z,100462.95
2022-12-13T05:05:08.796Z,100461.92
2022-12-13T05:05:40.960Z,100460.09
2022-12-13T05:06:26.954Z,100459.54
2022-12-13T05:06:45.343Z,100459.05
2022-12-13T05:07:17.473Z,100457.92
2022-12-13T05:07:49.675Z,100457.15
2022-12-13T05:08:21.868Z,100456.77
2022-12-13T05:08:54.019Z,100457.15
2022-12-13T05:09:26.244Z,100456.72
2022-12-13T05:09:58.449Z,100456.55
2022-12-13T05:10:33.992Z,100457.60
2022-12-13T05:11:02.777Z,100456.02
2022-12-13T05:11:35.628Z,100456.02
2022-12-13T05:12:22.865Z,100455.91
2022-12-13T05:12:39.473Z,100454.61
2022-12-13T05:13:11.659Z,100453.67
2022-12-13T05:13:43.853Z,100456.78
2022-12-13T05:14:23.456Z,100455.91
2022-12-13T05:14:48.257Z,100454.32
2022-12-13T05:15:20.447Z,100455.78
2022-12-13T05:15:55.234Z,100455.58
2022-12-13T05:16:24.993Z,100455.73
2022-12-13T05:16:57.027Z,100455.22
2022-12-13T05:17:29.150Z,100454.03
2022-12-13T05:18:01.288Z,100455.12
2022-12-13T05:18:33.492Z,100455.92
2022-12-13T05:19:05.613Z,100453.76
2022-12-13T05:19:44.796Z,100452.91
2022-12-13T05:20:17.165Z,100453.89
2022-12-13T05:20:49.322Z,100454.91
2022-12-13T05:21:21.491Z,100454.50
2022-12-13T05:21:53.626Z,100453.41
2022-12-13T05:22:25.869Z,100455.04
2022-12-13T05:22:58.127Z,100452.82
2022-12-13T05:23:30.341Z,100453.80
2022-12-13T05:24:02.459Z,100452.72
2022-12-13T05:24:34.579Z,100453.52
2022-12-13T05:25:06.734Z,100453.14
2022-12-13T05:25:38.870Z,100452.89
2022-12-13T05:26:11.002Z,100452.94
2022-12-13T05:26:43.155Z,100455.82
2022-12-13T05:27:25.385Z,100456.10
2022-12-13T05:27:47.587Z,100457.09
2022-12-13T05:28:27.025Z,100456.06
2022-12-13T05:28:51.939Z,100456.55
2022-12-13T05:29:24.083Z,100455.57
2022-12-13T05:30:02.943Z,100457.36
2022-12-13T05:30:28.390Z,100457.84
2022-12-13T05:31:00.621Z,100458.00
2022-12-13T05:31:32.847Z,100457.09
2022-12-13T05:32:05.040Z,100457.85
2022-12-13T05:32:43.692Z,100459.31
2022-12-13T05:33:09.345Z,100459.20
2022-12-13T05:33:41.574Z,100460.77
2022-12-13T05:34:13.755Z,100459.41
2022-12-13T05:34:45.928Z,100460.70
2022-12-13T05:35:22.900Z,100458.49
2022-12-13T05:35:51.511Z,100458.66
2022-12-13T05:36:22.590Z,100457.45
2022-12-13T05:36:54.826Z,100459.47
2022-12-13T05:37:27.046Z,100458.38
2022-12-13T05:37:59.248Z,100455.83
2022-12-13T05:38:31.422Z,100453.70
2022-12-13T05:39:03.604Z,100452.17
2022-12-13T05:39:35.798Z,100450.86
2022-12-13T05:40:07.985Z,100449.80
2022-12-13T05:40:40.196Z,100446.62
2022-12-13T05:41:12.446Z,100446.70
2022-12-13T05:41:44.697Z,100446.80
2022-12-13T05:42:17.010Z,100446.85
2022-12-13T05:42:49.200Z,100448.09
2022-12-13T05:43:22.431Z,100447.88
2022-12-13T05:43:53.722Z,100446.23
2022-12-13T05:44:25.854Z,100447.61
2022-12-13T05:44:58.043Z,100446.57
2022-12-13T05:45:30.255Z,100445.05
2022-12-13T05:46:02.572Z,100444.68
2022-12-13T05:46:39.919Z,100444.03
2022-12-13T05:47:06.904Z,100443.05
2022-12-13T05:47:39.166Z,100444.83
2022-12-13T05:48:11.330Z,100441.41
2022-12-13T05:48:43.490Z,100441.92
2022-12-13T05:49:15.679Z,100440.77
2022-12-13T05:49:47.860Z,100441.38
2022-12-13T05:50:20.009Z,100440.69
2022-12-13T05:50:52.218Z,100440.36
2022-12-13T05:51:24.361Z,100441.39
2022-12-13T05:51:56.502Z,100440.47
2022-12-13T05:52:30.795Z,100441.92
2022-12-13T05:53:01.827Z,100439.54
2022-12-13T05:53:34.013Z,100442.43
2022-12-13T05:54:06.214Z,100441.50
2022-12-13T05:54:38.379Z,100441.58
2022-12-13T05:55:10.582Z,100442.72
2022-12-13T05:55:42.764Z,100443.28
2022-12-13T05:56:22.752Z,100443.66
2022-12-13T05:56:47.128Z,100443.86
2022-12-13T05:57:19.288Z,100445.56
2022-12-13T05:57:51.681Z,100445.55
2022-12-13T05:58:23.630Z,100446.09
2022-12-13T05:58:55.799Z,100447.18
2022-12-13T05:59:27.987Z,100448.42
2022-12-13T06:00:00.177Z,100447.77
2022-12-13T06:00:32.386Z,100449.06
2022-12-13T06:01:04.554Z,100450.61
2022-12-13T06:01:36.694Z,100450.59
2022-12-13T06:02:08.930Z,100451.79
2022-12-13T06:02:41.132Z,100452.50
2022-12-13T06:03:13.616Z,100452.38
2022-12-13T06:03:46.619Z,100454.22
2022-12-13T06:04:22.739Z,100453.83
2022-12-13T06:04:51.619Z,100453.28
2022-12-13T06:05:23.830Z,100452.90
2022-12-13T06:05:55.991Z,100453.58
2022-12-13T06:06:28.125Z,100455.14
2022-12-13T06:07:00.376Z,100453.02
2022-12-13T06:07:32.550Z,100452.30
2022-12-13T06:08:24.611Z,100451.23
2022-12-13T06:08:36.990Z,100451.44